Terminal Aerodrome Forecast
Issued by NWS Melbourne, FL

Home | Current Version | Previous Version | Text Only | Print | Product List | Glossary On
Versions: 1 2 3 4 5 6 7 8 9 10 11 12 13 14 15 16 17 18
000
FTUS42 KMLB 250700 AAA
TAFMLB
TAF AMD
KMLB 250704Z 2507/2606 26009KT P6SM BKN080 OVC110
     FM250800 27008KT P6SM FEW050 BKN110
     FM251200 30009KT P6SM BKN060
     FM260300 01005KT P6SM SCT010 BKN025=

USA.gov is the U.S. government's official web portal to all federal, state and local government web resources and services.